Time;durP1;ratioP1;P1;durP2;ratioP2;P2;SDS_P1;SDS_P2;PMS_P1;PMS_P2;Temp;Humidity;BMP_temperature;BMP_pressure;BME280_temperature;BME280_humidity;BME280_pressure;Samples;Min_cycle;Max_cycle;Signal;HPM_P1;HPM_P2
2023/07/25 00:02:09;;;;;;;11.60;4.15;;;;;;;12.33;90.71;100649.00;5022888;28;20022;-62
2023/07/25 00:04:35;;;;;;;6.78;3.70;;;;;;;12.31;91.19;100662.50;5028174;28;20044;-62
2023/07/25 00:07:00;;;;;;;8.55;4.25;;;;;;;12.31;91.23;100659.84;5022141;28;20082;-62
2023/07/25 00:09:25;;;;;;;9.13;4.10;;;;;;;12.31;91.79;100661.69;5030075;28;20025;-62
2023/07/25 00:11:50;;;;;;;8.43;4.32;;;;;;;12.25;92.57;100659.75;5020295;28;20025;-62
2023/07/25 00:14:16;;;;;;;10.43;4.53;;;;;;;12.28;92.31;100670.88;5028460;28;20051;-62
2023/07/25 00:16:41;;;;;;;12.35;5.50;;;;;;;12.29;93.07;100667.19;5026242;28;20037;-63
2023/07/25 00:19:06;;;;;;;8.70;4.97;;;;;;;12.27;92.86;100660.41;5019718;28;20192;-62
2023/07/25 00:21:31;;;;;;;11.80;5.18;;;;;;;12.27;93.16;100665.72;5028553;28;20037;-62
2023/07/25 00:23:56;;;;;;;11.13;5.60;;;;;;;12.30;93.80;100668.00;5025739;28;20129;-62
2023/07/25 00:26:22;;;;;;;12.27;5.43;;;;;;;12.37;94.09;100664.41;5027998;28;20511;-62
2023/07/25 00:28:47;;;;;;;9.20;5.20;;;;;;;12.36;94.53;100656.59;5022838;28;20034;-62
2023/07/25 00:31:13;;;;;;;10.68;5.88;;;;;;;12.44;94.60;100659.19;5013891;28;20040;-62
2023/07/25 00:33:38;;;;;;;9.77;5.57;;;;;;;12.48;94.58;100659.63;5025583;28;20040;-62
2023/07/25 00:36:03;;;;;;;14.20;5.70;;;;;;;12.45;94.67;100660.84;5021320;28;20029;-62
2023/07/25 00:38:29;;;;;;;12.02;5.50;;;;;;;12.46;94.79;100659.00;5022097;28;20057;-62
2023/07/25 00:40:54;;;;;;;14.13;5.80;;;;;;;12.46;94.69;100662.50;5023234;28;20494;-62
2023/07/25 00:43:19;;;;;;;13.52;6.40;;;;;;;12.47;95.12;100658.81;5025322;28;20033;-62
2023/07/25 00:45:44;;;;;;;11.07;5.68;;;;;;;12.47;94.96;100666.81;5026818;28;21061;-62
2023/07/25 00:48:10;;;;;;;14.35;5.82;;;;;;;12.46;94.85;100661.66;5023456;28;20088;-62
2023/07/25 00:50:35;;;;;;;10.18;5.68;;;;;;;12.46;95.00;100665.16;5028405;28;20546;-62
2023/07/25 00:53:01;;;;;;;10.73;5.53;;;;;;;12.44;94.99;100669.84;5026291;28;20041;-62
2023/07/25 00:55:27;;;;;;;11.20;5.75;;;;;;;12.40;95.32;100658.72;5025891;28;20029;-62
2023/07/25 00:57:52;;;;;;;12.20;5.35;;;;;;;12.38;95.20;100659.91;5027455;28;20104;-62
2023/07/25 01:00:18;;;;;;;8.90;5.47;;;;;;;12.31;94.95;100661.69;5013204;28;20038;-62
2023/07/25 01:02:43;;;;;;;11.73;5.80;;;;;;;12.31;94.82;100659.00;5021179;28;20045;-62
2023/07/25 01:05:09;;;;;;;10.80;5.68;;;;;;;12.25;95.06;100654.44;5025839;28;20029;-62
2023/07/25 01:07:38;;;;;;;8.98;5.30;;;;;;;12.23;95.04;100659.13;5017505;28;20068;-62
2023/07/25 01:10:04;;;;;;;8.85;5.30;;;;;;;12.16;95.28;100652.91;5012528;28;20180;-62
2023/07/25 01:12:29;;;;;;;11.82;5.47;;;;;;;12.08;95.14;100654.63;5019017;28;20600;-62
2023/07/25 01:14:54;;;;;;;8.60;5.18;;;;;;;12.07;95.04;100655.63;5020244;28;20021;-62
2023/07/25 01:17:23;;;;;;;10.38;5.15;;;;;;;12.08;95.35;100651.97;5023596;28;20029;-61
2023/07/25 01:19:49;;;;;;;9.68;5.80;;;;;;;12.08;95.42;100646.63;5018514;28;20131;-62
2023/07/25 01:22:14;;;;;;;9.55;5.57;;;;;;;12.19;95.36;100644.53;5026456;28;20027;-62
2023/07/25 01:24:45;;;;;;;7.18;5.43;;;;;;;12.23;95.98;100645.81;5024941;28;20060;-62
2023/07/25 01:27:11;;;;;;;8.30;5.38;;;;;;;12.22;96.09;100649.50;5023662;28;20048;-62
2023/07/25 01:29:36;;;;;;;10.85;5.55;;;;;;;12.21;95.95;100650.50;5017830;28;20487;-62
2023/07/25 01:32:02;;;;;;;12.75;6.50;;;;;;;12.18;96.06;100641.06;5015593;28;20033;-62
2023/07/25 01:34:27;;;;;;;13.48;5.75;;;;;;;12.13;95.78;100643.41;5023074;28;20021;-62
2023/07/25 01:36:52;;;;;;;11.25;5.93;;;;;;;12.08;95.89;100643.97;5023888;28;20540;-62
2023/07/25 01:39:18;;;;;;;8.70;5.68;;;;;;;12.03;95.64;100642.88;5020227;28;20026;-62
2023/07/25 01:41:44;;;;;;;12.68;6.00;;;;;;;11.98;95.64;100642.63;5022142;28;21375;-62
2023/07/25 01:44:09;;;;;;;9.15;6.13;;;;;;;11.91;96.01;100626.56;5021133;28;20036;-62
2023/07/25 01:46:34;;;;;;;11.40;6.65;;;;;;;11.93;96.36;100637.03;5012570;28;20560;-62
2023/07/25 01:49:00;;;;;;;11.85;6.93;;;;;;;11.94;96.50;100639.50;5023935;28;20439;-62
2023/07/25 01:51:26;;;;;;;14.75;6.63;;;;;;;11.96;96.77;100632.16;5022305;28;20039;-62
2023/07/25 01:53:53;;;;;;;10.27;6.53;;;;;;;12.06;97.33;100629.22;5031800;28;20021;-62
2023/07/25 01:56:19;;;;;;;13.25;6.97;;;;;;;12.07;97.32;100631.69;5026593;28;20033;-62
2023/07/25 01:58:44;;;;;;;12.40;6.55;;;;;;;12.14;97.29;100626.44;5023333;28;20490;-62
2023/07/25 02:01:10;;;;;;;12.27;6.43;;;;;;;12.17;97.67;100623.44;5023960;28;20040;-62
2023/07/25 02:03:35;;;;;;;10.98;5.80;;;;;;;12.16;97.25;100620.94;5018910;28;20680;-62
2023/07/25 02:06:00;;;;;;;9.38;5.63;;;;;;;12.20;97.31;100609.75;5027189;28;20028;-62
2023/07/25 02:08:25;;;;;;;8.40;6.05;;;;;;;12.15;96.79;100612.13;5025285;28;20036;-62
2023/07/25 02:10:51;;;;;;;7.57;5.70;;;;;;;12.07;96.64;100618.38;5026780;28;20042;-62
2023/07/25 02:13:16;;;;;;;9.63;5.88;;;;;;;12.02;96.28;100611.97;5018462;28;20040;-62
2023/07/25 02:15:41;;;;;;;13.55;6.72;;;;;;;11.97;96.21;100615.19;5025226;28;20052;-62
2023/07/25 02:18:06;;;;;;;11.45;6.47;;;;;;;11.93;96.33;100619.22;5019847;28;20033;-62
2023/07/25 02:20:32;;;;;;;12.73;6.82;;;;;;;11.91;96.75;100612.44;5024055;28;20021;-62
2023/07/25 02:22:58;;;;;;;9.32;6.50;;;;;;;11.91;96.90;100617.75;5023560;28;20017;-62
2023/07/25 02:25:25;;;;;;;15.18;6.93;;;;;;;11.89;97.40;100623.28;5025484;28;20045;-62
2023/07/25 02:27:51;;;;;;;10.18;6.68;;;;;;;11.86;97.55;100620.16;5024544;28;20033;-62
2023/07/25 02:30:16;;;;;;;12.13;5.85;;;;;;;11.80;97.45;100621.69;5020078;28;20018;-63
2023/07/25 02:32:41;;;;;;;7.15;5.03;;;;;;;11.71;97.23;100612.97;5022340;28;20479;-62
2023/07/25 02:35:06;;;;;;;9.93;4.57;;;;;;;11.65;96.88;100615.53;5016045;28;20036;-62
2023/07/25 02:37:32;;;;;;;5.10;4.30;;;;;;;11.57;96.60;100616.44;5021532;28;20034;-62
2023/07/25 02:39:57;;;;;;;7.25;5.10;;;;;;;11.54;96.98;100618.63;5024234;28;20025;-61
2023/07/25 02:42:22;;;;;;;9.35;5.32;;;;;;;11.48;97.11;100618.34;5019315;28;20022;-62
2023/07/25 02:44:47;;;;;;;8.18;4.90;;;;;;;11.42;96.69;100610.28;5023487;28;20407;-62
2023/07/25 02:47:13;;;;;;;9.57;5.32;;;;;;;11.34;96.91;100613.84;5021446;28;20041;-62
2023/07/25 02:49:38;;;;;;;7.18;4.55;;;;;;;11.29;97.13;100608.25;5022639;28;20039;-62
2023/07/25 02:52:04;;;;;;;6.55;4.35;;;;;;;11.18;96.78;100619.31;5027742;28;20403;-62
2023/07/25 02:54:30;;;;;;;5.75;4.00;;;;;;;11.16;97.08;100618.66;5021270;28;20029;-62
2023/07/25 02:56:55;;;;;;;8.27;4.82;;;;;;;11.13;96.86;100613.72;5026354;28;20042;-62
2023/07/25 02:59:20;;;;;;;8.95;4.97;;;;;;;11.12;97.34;100623.50;5019567;28;20564;-62
2023/07/25 03:01:45;;;;;;;8.30;5.22;;;;;;;11.11;97.49;100615.72;5016879;28;20065;-62
2023/07/25 03:04:11;;;;;;;9.15;5.78;;;;;;;11.11;98.15;100613.88;5023661;28;20021;-62
2023/07/25 03:06:36;;;;;;;12.27;5.60;;;;;;;11.11;98.25;100608.56;5018711;28;20535;-62
2023/07/25 03:09:01;;;;;;;10.65;6.25;;;;;;;11.15;98.36;100606.38;5025863;28;20025;-62
2023/07/25 03:11:26;;;;;;;9.98;5.10;;;;;;;11.10;98.36;100611.41;5026125;28;20028;-61
2023/07/25 03:13:52;;;;;;;6.60;5.03;;;;;;;11.09;98.34;100617.72;5027661;28;20033;-62
2023/07/25 03:16:17;;;;;;;9.15;5.43;;;;;;;11.10;98.53;100616.72;5022804;28;20072;-62
2023/07/25 03:18:42;;;;;;;12.00;6.78;;;;;;;11.15;98.93;100620.50;5016999;28;20033;-62
2023/07/25 03:21:07;;;;;;;13.50;6.93;;;;;;;11.18;99.18;100620.13;5020317;28;20205;-62
2023/07/25 03:23:32;;;;;;;9.50;6.78;;;;;;;11.20;99.62;100622.59;5023631;28;20025;-62
2023/07/25 03:25:58;;;;;;;13.07;6.38;;;;;;;11.24;99.95;100626.56;5017966;28;20037;-62
2023/07/25 03:28:23;;;;;;;14.82;7.10;;;;;;;11.29;100.00;100631.34;5026155;28;20067;-62
2023/07/25 03:30:49;;;;;;;8.18;5.25;;;;;;;11.36;99.79;100625.13;5023192;28;20029;-62
2023/07/25 03:33:14;;;;;;;10.15;5.07;;;;;;;11.41;100.00;100620.09;5030857;28;20087;-62
2023/07/25 03:35:39;;;;;;;7.88;5.32;;;;;;;11.45;99.66;100616.06;5022051;28;20033;-63
2023/07/25 03:38:04;;;;;;;8.80;4.57;;;;;;;11.46;99.67;100612.38;5028059;28;20394;-62
2023/07/25 03:40:30;;;;;;;5.63;4.13;;;;;;;11.39;99.80;100587.53;5018957;28;20038;-62
2023/07/25 03:42:55;;;;;;;7.68;4.15;;;;;;;11.50;99.23;100602.22;5019089;28;20641;-62
2023/07/25 03:45:20;;;;;;;5.65;4.45;;;;;;;11.51;98.86;100605.69;5016824;28;20079;-62
2023/07/25 03:47:45;;;;;;;10.20;4.88;;;;;;;11.47;98.93;100607.88;5027484;28;20029;-62
2023/07/25 03:50:11;;;;;;;7.00;4.50;;;;;;;11.59;98.90;100610.94;5011221;28;20440;-62
2023/07/25 03:52:36;;;;;;;8.57;4.55;;;;;;;11.62;99.03;100605.25;5028468;28;20033;-62
2023/07/25 03:55:01;;;;;;;7.30;4.88;;;;;;;11.64;98.97;100596.09;5027651;28;20554;-62
2023/07/25 03:57:27;;;;;;;7.15;5.38;;;;;;;11.68;98.73;100601.84;5026221;28;20029;-62
2023/07/25 03:59:52;;;;;;;8.32;5.45;;;;;;;11.69;98.98;100600.84;5018208;28;20542;-62
2023/07/25 04:02:17;;;;;;;7.47;5.25;;;;;;;11.70;98.31;100603.31;5017889;28;20044;-62
2023/07/25 04:04:42;;;;;;;10.10;4.90;;;;;;;11.70;98.43;100605.97;5014504;28;20065;-62
2023/07/25 04:07:07;;;;;;;8.45;5.00;;;;;;;11.67;98.50;100602.88;5017380;28;20123;-63
2023/07/25 04:09:33;;;;;;;7.80;5.00;;;;;;;11.63;98.46;100602.41;5021192;28;20032;-62
2023/07/25 04:11:58;;;;;;;7.53;5.25;;;;;;;11.56;98.04;100600.66;5027093;28;20103;-62
2023/07/25 04:14:23;;;;;;;6.63;4.75;;;;;;;11.49;97.78;100596.06;5020693;28;20530;-62
2023/07/25 04:16:48;;;;;;;9.35;4.80;;;;;;;11.44;98.00;100608.25;5023671;28;20033;-62
2023/07/25 04:19:14;;;;;;;8.95;5.45;;;;;;;11.42;97.92;100613.75;5015579;28;20032;-62
2023/07/25 04:21:39;;;;;;;11.40;6.00;;;;;;;11.39;98.34;100615.97;5022486;28;20461;-61
2023/07/25 04:24:05;;;;;;;8.02;5.43;;;;;;;11.37;98.66;100613.47;5010590;28;20021;-62
2023/07/25 04:26:31;;;;;;;11.55;6.50;;;;;;;11.38;98.65;100609.81;5023749;28;20139;-62
2023/07/25 04:28:56;;;;;;;9.05;6.25;;;;;;;11.38;99.08;100612.47;5024273;28;20034;-62
2023/07/25 04:31:21;;;;;;;8.57;5.68;;;;;;;11.37;99.23;100612.66;5009592;28;20049;-63
2023/07/25 04:33:46;;;;;;;8.65;5.47;;;;;;;11.32;99.06;100626.50;5021733;28;20211;-62
2023/07/25 04:36:13;;;;;;;8.43;5.00;;;;;;;11.27;98.82;100623.53;5026799;28;20072;-62
2023/07/25 04:38:38;;;;;;;7.55;4.78;;;;;;;11.23;99.06;100611.59;5019873;28;20068;-62
2023/07/25 04:41:03;;;;;;;8.02;5.40;;;;;;;11.22;99.36;100617.94;5022959;28;20037;-62
2023/07/25 04:43:28;;;;;;;7.18;5.18;;;;;;;11.22;99.43;100617.94;5021423;28;20038;-62
2023/07/25 04:45:54;;;;;;;9.15;6.00;;;;;;;11.23;99.64;100619.59;5026554;28;20037;-62
2023/07/25 04:48:19;;;;;;;11.43;6.10;;;;;;;11.24;99.96;100628.38;5023620;28;20479;-62
2023/07/25 04:50:44;;;;;;;8.10;5.40;;;;;;;11.17;100.00;100636.25;5024403;28;20609;-62
2023/07/25 04:53:09;;;;;;;7.93;5.50;;;;;;;11.14;99.45;100628.66;5025056;28;20033;-61
2023/07/25 04:55:35;;;;;;;7.75;5.60;;;;;;;11.10;99.35;100627.34;5017097;28;20486;-62
2023/07/25 04:58:00;;;;;;;11.02;6.13;;;;;;;11.14;99.24;100629.47;5022410;28;20037;-62
2023/07/25 05:00:25;;;;;;;12.27;6.07;;;;;;;11.17;100.00;100628.28;5022849;28;20033;-62
2023/07/25 05:02:50;;;;;;;9.45;5.97;;;;;;;11.22;100.00;100628.56;5017693;28;20737;-62
2023/07/25 05:05:16;;;;;;;11.40;6.53;;;;;;;11.28;100.00;100624.38;5020640;28;20025;-62
2023/07/25 05:07:41;;;;;;;8.88;6.05;;;;;;;11.33;100.00;100630.81;5025254;28;20025;-62
2023/07/25 05:10:07;;;;;;;12.77;6.70;;;;;;;11.41;100.00;100620.09;5023857;28;20026;-62
2023/07/25 05:12:32;;;;;;;8.85;6.32;;;;;;;11.47;100.00;100621.19;5022318;28;20026;-62
2023/07/25 05:14:57;;;;;;;10.23;6.90;;;;;;;11.63;100.00;100621.03;5015378;28;20053;-62
2023/07/25 05:17:23;;;;;;;11.85;6.97;;;;;;;11.76;100.00;100623.03;5019338;28;20033;-62
2023/07/25 05:19:48;;;;;;;11.93;7.07;;;;;;;11.87;100.00;100622.63;5026562;28;20453;-62
2023/07/25 05:22:13;;;;;;;13.90;6.63;;;;;;;11.96;100.00;100620.69;5023279;28;20025;-62
2023/07/25 05:24:38;;;;;;;13.90;7.40;;;;;;;12.03;100.00;100619.75;5018673;28;20483;-62
2023/07/25 05:27:04;;;;;;;14.43;7.18;;;;;;;12.13;100.00;100621.28;5027802;28;20030;-62
2023/07/25 05:29:30;;;;;;;14.35;6.97;;;;;;;12.22;100.00;100630.84;5024999;28;20025;-61
2023/07/25 05:31:55;;;;;;;12.93;6.70;;;;;;;12.27;100.00;100637.25;5018803;28;20482;-62
2023/07/25 05:34:20;;;;;;;13.02;7.10;;;;;;;12.32;100.00;100628.72;5016851;28;20061;-62
2023/07/25 05:36:46;;;;;;;14.98;7.13;;;;;;;12.32;100.00;100626.03;5024373;28;20041;-62
2023/07/25 05:39:11;;;;;;;14.52;6.97;;;;;;;12.38;100.00;100626.13;5021739;28;20079;-62
2023/07/25 05:41:39;;;;;;;12.82;6.20;;;;;;;12.46;100.00;100627.03;5021041;28;20411;-62
2023/07/25 05:44:04;;;;;;;18.13;6.90;;;;;;;12.54;100.00;100622.41;5021209;28;20026;-62
2023/07/25 05:46:29;;;;;;;13.45;6.45;;;;;;;12.64;100.00;100627.41;5018998;28;20022;-62
2023/07/25 05:48:55;;;;;;;16.00;6.90;;;;;;;12.76;100.00;100633.09;5016621;28;20032;-62
2023/07/25 05:51:20;;;;;;;15.43;7.32;;;;;;;12.87;100.00;100630.75;5016440;28;20041;-62
2023/07/25 05:53:45;;;;;;;12.48;7.00;;;;;;;12.93;100.00;100637.97;5019455;28;20691;-62
2023/07/25 05:56:10;;;;;;;10.73;6.32;;;;;;;12.99;100.00;100642.53;5023323;28;20036;-62
2023/07/25 05:58:36;;;;;;;11.38;6.15;;;;;;;13.03;100.00;100643.81;5019090;28;20026;-62
2023/07/25 06:01:01;;;;;;;12.38;6.72;;;;;;;13.10;100.00;100643.88;5022378;28;20766;-62
2023/07/25 06:03:26;;;;;;;12.70;6.40;;;;;;;13.14;100.00;100649.63;5016274;28;20029;-62
2023/07/25 06:05:51;;;;;;;16.08;6.70;;;;;;;13.24;100.00;100648.31;5028007;28;20029;-62
2023/07/25 06:08:17;;;;;;;17.13;6.20;;;;;;;13.30;100.00;100644.09;5027538;28;20554;-62
2023/07/25 06:10:43;;;;;;;13.95;6.13;;;;;;;13.39;100.00;100650.91;5017572;28;20030;-62
2023/07/25 06:13:08;;;;;;;12.23;5.88;;;;;;;13.51;100.00;100657.34;5023272;28;20030;-62
2023/07/25 06:15:34;;;;;;;16.25;5.40;;;;;;;13.62;100.00;100648.00;5018368;28;20022;-62
2023/07/25 06:18:00;;;;;;;15.05;4.70;;;;;;;13.71;100.00;100648.66;5022956;28;20387;-62
2023/07/25 06:20:26;;;;;;;10.18;3.97;;;;;;;13.78;99.15;100646.84;5016940;28;20026;-62
2023/07/25 06:22:51;;;;;;;11.13;3.70;;;;;;;13.82;98.36;100648.94;5021598;28;20387;-62
2023/07/25 06:25:16;;;;;;;10.73;3.70;;;;;;;13.87;97.56;100641.16;5022496;28;20052;-62
2023/07/25 06:27:41;;;;;;;14.15;3.97;;;;;;;13.94;96.78;100635.88;5016571;28;21521;-61
2023/07/25 06:30:07;;;;;;;11.13;4.05;;;;;;;14.02;96.45;100637.56;5019938;28;20087;-62
2023/07/25 06:32:34;;;;;;;12.73;3.53;;;;;;;14.08;96.05;100634.09;5017798;28;20053;-62
2023/07/25 06:34:59;;;;;;;9.63;3.60;;;;;;;14.14;95.56;100641.28;5024151;28;20033;-62
2023/07/25 06:37:25;;;;;;;11.00;3.40;;;;;;;14.19;95.20;100644.22;5022448;28;20087;-62
2023/07/25 06:39:50;;;;;;;9.20;3.50;;;;;;;14.23;94.68;100650.81;5022568;28;20034;-62
2023/07/25 06:42:15;;;;;;;12.50;3.65;;;;;;;14.29;94.44;100655.34;5019977;28;20025;-62
2023/07/25 06:44:40;;;;;;;10.35;3.35;;;;;;;14.43;94.15;100666.94;5014029;28;20060;-61
2023/07/25 06:47:06;;;;;;;10.73;3.20;;;;;;;14.54;93.64;100661.84;5024469;28;20029;-62
2023/07/25 06:49:31;;;;;;;9.15;2.90;;;;;;;14.68;93.23;100657.34;5021779;28;20057;-62
2023/07/25 06:51:56;;;;;;;14.90;3.75;;;;;;;14.81;92.84;100656.56;5019048;28;20056;-62
2023/07/25 06:54:22;;;;;;;12.73;3.10;;;;;;;14.88;92.40;100663.56;5019827;28;20034;-62
2023/07/25 06:56:47;;;;;;;9.52;3.15;;;;;;;14.98;91.89;100662.34;5020824;28;20026;-62
2023/07/25 06:59:13;;;;;;;12.00;3.03;;;;;;;15.11;91.66;100665.06;5026520;28;20804;-63
2023/07/25 07:01:38;;;;;;;10.32;3.60;;;;;;;15.18;91.15;100649.81;5013019;28;20088;-62
2023/07/25 07:04:04;;;;;;;11.93;3.00;;;;;;;15.30;90.42;100652.69;5019862;28;20024;-61
2023/07/25 07:06:29;;;;;;;10.27;2.70;;;;;;;15.43;90.19;100656.22;5023337;28;20608;-63
2023/07/25 07:08:54;;;;;;;10.82;2.92;;;;;;;15.52;89.47;100650.63;5018895;28;20383;-62
2023/07/25 07:11:19;;;;;;;8.05;2.60;;;;;;;15.56;88.84;100654.53;5022940;28;20029;-62
2023/07/25 07:13:45;;;;;;;8.82;2.25;;;;;;;15.58;87.45;100656.00;5025260;28;20022;-62
2023/07/25 07:16:10;;;;;;;9.15;2.10;;;;;;;15.58;85.98;100661.34;5023632;28;20026;-62
2023/07/25 07:18:35;;;;;;;6.78;2.30;;;;;;;15.64;85.37;100667.75;5022620;28;20026;-62
2023/07/25 07:21:01;;;;;;;6.05;1.75;;;;;;;15.71;85.24;100658.69;5024495;28;20049;-62
2023/07/25 07:23:26;;;;;;;10.35;2.38;;;;;;;15.71;84.06;100663.22;5023156;28;20025;-62
2023/07/25 07:25:51;;;;;;;8.40;2.03;;;;;;;15.76;83.44;100666.09;5024100;28;20029;-62
2023/07/25 07:28:16;;;;;;;7.63;2.13;;;;;;;15.84;83.27;100673.88;5028158;28;20031;-62
2023/07/25 07:30:47;;;;;;;5.57;1.65;;;;;;;15.92;82.87;100671.00;5023854;28;20030;-62
2023/07/25 07:33:13;;;;;;;11.43;1.80;;;;;;;15.94;82.10;100670.81;5025419;28;20079;-62
2023/07/25 07:35:38;;;;;;;7.93;1.60;;;;;;;16.07;81.12;100676.09;5028747;28;20061;-62
2023/07/25 07:38:03;;;;;;;8.70;1.50;;;;;;;16.13;80.42;100679.78;5029171;28;20028;-62
2023/07/25 07:40:28;;;;;;;8.90;1.73;;;;;;;16.18;79.46;100671.94;5027763;28;20124;-62
2023/07/25 07:42:54;;;;;;;6.30;1.50;;;;;;;16.22;79.10;100682.06;5022036;28;20025;-62
2023/07/25 07:45:21;;;;;;;7.22;1.58;;;;;;;16.22;78.52;100675.88;5014631;28;20033;-62
2023/07/25 07:47:46;;;;;;;8.48;1.80;;;;;;;16.24;78.04;100692.56;5027231;28;20037;-63
2023/07/25 07:50:12;;;;;;;9.35;1.60;;;;;;;16.21;77.60;100692.97;5024951;28;20029;-62
2023/07/25 07:52:41;;;;;;;8.32;1.58;;;;;;;16.21;77.39;100685.78;5021836;28;20483;-62
2023/07/25 07:55:10;;;;;;;6.35;1.77;;;;;;;16.22;76.87;100686.59;5014406;28;20018;-62
2023/07/25 07:57:44;;;;;;;8.98;1.83;;;;;;;16.25;76.65;100694.19;5020526;28;20034;-62
2023/07/25 08:00:11;;;;;;;9.65;2.13;;;;;;;16.21;76.00;100701.84;5023558;28;20993;-62
2023/07/25 08:02:37;;;;;;;10.23;1.60;;;;;;;16.23;76.25;100702.47;5030114;28;20025;-62
2023/07/25 08:05:03;;;;;;;6.28;1.63;;;;;;;16.28;76.21;100710.69;5025491;28;20014;-62
2023/07/25 08:07:28;;;;;;;6.90;1.50;;;;;;;16.38;75.97;100705.69;5026642;28;20031;-62
2023/07/25 08:09:54;;;;;;;8.70;1.85;;;;;;;16.43;75.84;100713.09;5023032;28;20021;-62
2023/07/25 08:12:20;;;;;;;3.08;1.10;;;;;;;16.39;74.73;100707.31;5022799;28;20441;-62
2023/07/25 08:14:45;;;;;;;6.60;1.67;;;;;;;16.42;74.38;100704.22;5022299;28;20032;-62
2023/07/25 08:17:10;;;;;;;9.82;1.95;;;;;;;16.44;74.12;100712.06;5029931;28;20021;-62
2023/07/25 08:19:36;;;;;;;6.63;1.63;;;;;;;16.45;73.95;100719.06;5015744;28;20060;-62
2023/07/25 08:22:01;;;;;;;4.07;1.50;;;;;;;16.49;73.15;100716.81;5022868;28;20419;-61
2023/07/25 08:24:26;;;;;;;8.38;1.80;;;;;;;16.49;72.91;100719.47;5025987;28;20033;-62
2023/07/25 08:26:51;;;;;;;6.85;1.25;;;;;;;16.58;72.91;100715.50;5033334;28;20026;-62
2023/07/25 08:29:17;;;;;;;9.95;1.85;;;;;;;16.72;73.25;100715.25;5023018;28;20020;-63
2023/07/25 08:31:42;;;;;;;7.70;1.60;;;;;;;16.89;73.35;100714.78;5023675;28;20044;-62
2023/07/25 08:34:07;;;;;;;8.10;1.60;;;;;;;17.04;72.80;100708.06;5026708;28;20372;-62
2023/07/25 08:36:32;;;;;;;6.93;1.42;;;;;;;17.18;72.88;100716.03;5019942;28;20057;-62
2023/07/25 08:38:58;;;;;;;7.28;1.40;;;;;;;17.18;72.78;100711.50;5025682;28;20029;-62
2023/07/25 08:41:29;;;;;;;6.88;1.45;;;;;;;17.22;71.92;100727.97;5034773;28;20021;-62
2023/07/25 08:44:00;;;;;;;6.53;1.52;;;;;;;17.20;72.04;100719.31;5020730;28;20029;-62
2023/07/25 08:46:27;;;;;;;6.43;1.20;;;;;;;17.20;72.04;100724.69;5028810;28;20045;-62
2023/07/25 08:48:59;;;;;;;7.88;1.70;;;;;;;17.24;71.82;100725.91;5021283;28;20022;-62
2023/07/25 08:51:27;;;;;;;6.15;1.60;;;;;;;17.15;70.60;100736.09;5022491;28;20032;-62
2023/07/25 08:54:05;;;;;;;5.45;1.20;;;;;;;17.12;69.44;100735.69;5020086;28;20026;-63
2023/07/25 08:56:31;;;;;;;5.03;1.20;;;;;;;17.05;69.26;100733.03;5029012;28;20080;-62
2023/07/25 08:58:58;;;;;;;5.47;1.55;;;;;;;17.15;69.44;100744.13;5021656;28;20025;-62
2023/07/25 09:01:25;;;;;;;4.88;1.20;;;;;;;17.18;69.21;100743.69;5023347;28;20025;-62
2023/07/25 09:03:52;;;;;;;7.28;1.60;;;;;;;17.32;69.44;100739.88;5023274;28;20538;-62
2023/07/25 09:06:17;;;;;;;8.38;1.48;;;;;;;17.52;69.04;100742.44;5024938;28;20519;-62
2023/07/25 09:08:42;;;;;;;6.15;1.25;;;;;;;17.77;67.81;100744.31;5019593;28;20030;-62
2023/07/25 09:11:09;;;;;;;7.50;1.25;;;;;;;17.99;66.88;100742.88;5029097;28;20025;-62
2023/07/25 09:13:35;;;;;;;6.53;1.77;;;;;;;18.23;66.18;100744.72;5028088;28;20026;-62
2023/07/25 09:16:01;;;;;;;5.97;1.40;;;;;;;18.44;64.82;100743.41;5023075;28;20026;-62
2023/07/25 09:18:26;;;;;;;8.48;1.55;;;;;;;18.70;64.11;100745.00;5026419;28;20031;-62
2023/07/25 09:20:52;;;;;;;6.30;1.33;;;;;;;18.78;62.44;100739.31;5021134;28;20026;-62
2023/07/25 09:23:23;;;;;;;5.90;1.17;;;;;;;19.08;63.08;100749.25;5026478;28;20032;-63
2023/07/25 09:25:49;;;;;;;5.05;1.13;;;;;;;19.16;63.08;100746.25;5024661;28;20022;-63
2023/07/25 09:28:14;;;;;;;6.55;1.30;;;;;;;19.17;62.26;100751.41;5021954;28;20035;-62
2023/07/25 09:30:49;;;;;;;5.25;1.25;;;;;;;19.16;61.24;100744.41;5024204;28;20029;-63
2023/07/25 09:33:26;;;;;;;3.60;1.00;;;;;;;19.09;61.55;100750.94;5024515;28;20444;-63
2023/07/25 09:35:52;;;;;;;4.10;1.20;;;;;;;18.91;60.91;100749.09;5027985;28;20064;-62
2023/07/25 09:38:18;;;;;;;4.05;1.20;;;;;;;18.77;60.91;100745.75;5020808;28;20026;-62
2023/07/25 09:40:45;;;;;;;6.45;1.70;;;;;;;18.65;60.79;100752.13;5019904;28;20077;-62
2023/07/25 09:43:23;;;;;;;3.85;1.35;;;;;;;18.48;60.35;100755.38;5017868;28;20121;-62
2023/07/25 09:45:49;;;;;;;7.10;1.30;;;;;;;18.41;60.22;100756.50;5017335;28;20033;-63
2023/07/25 09:48:15;;;;;;;8.00;1.38;;;;;;;18.51;60.64;100751.44;5017758;28;20368;-63
2023/07/25 09:50:44;;;;;;;22.85;1.67;;;;;;;18.66;61.03;100754.59;5022643;28;20025;-63
2023/07/25 09:53:10;;;;;;;6.47;1.50;;;;;;;18.84;61.51;100754.56;5019527;28;20033;-64
2023/07/25 09:55:35;;;;;;;6.50;1.30;;;;;;;19.15;61.07;100750.00;5018586;28;20068;-63
2023/07/25 09:58:01;;;;;;;7.38;1.63;;;;;;;19.30;60.35;100753.09;5023699;28;20041;-64
2023/07/25 10:00:27;;;;;;;5.75;1.48;;;;;;;19.65;60.53;100760.44;5023900;28;20028;-63
2023/07/25 10:02:53;;;;;;;3.58;1.30;;;;;;;19.78;59.47;100752.16;5019855;28;20028;-64
2023/07/25 10:05:19;;;;;;;5.18;1.40;;;;;;;19.88;58.90;100751.56;5021586;28;20025;-64
2023/07/25 10:07:45;;;;;;;5.97;1.40;;;;;;;20.15;58.65;100752.75;5022372;28;20029;-64
2023/07/25 10:10:11;;;;;;;5.93;1.20;;;;;;;20.31;57.79;100754.72;5021852;28;20055;-64
2023/07/25 10:12:36;;;;;;;5.15;1.58;;;;;;;20.49;57.90;100752.94;5020300;28;20033;-64
2023/07/25 10:15:02;;;;;;;6.80;1.30;;;;;;;20.73;57.90;100752.66;5011210;28;20026;-64
2023/07/25 10:17:27;;;;;;;4.13;1.20;;;;;;;20.81;56.39;100748.75;5013911;28;20048;-64
2023/07/25 10:19:55;;;;;;;5.28;1.30;;;;;;;20.96;55.92;100750.94;5029574;28;20025;-64
2023/07/25 10:22:36;;;;;;;2.75;0.95;;;;;;;20.97;55.90;100760.69;5029821;28;20399;-64
2023/07/25 10:25:07;;;;;;;3.38;1.10;;;;;;;21.10;54.52;100743.34;5015169;28;20024;-64
2023/07/25 10:27:33;;;;;;;3.90;1.02;;;;;;;21.30;54.77;100754.56;5026496;28;20013;-64
2023/07/25 10:30:01;;;;;;;3.15;0.95;;;;;;;21.24;53.19;100745.53;5019634;28;20586;-64
2023/07/25 10:32:43;;;;;;;4.63;1.08;;;;;;;21.38;52.64;100756.84;5023322;28;20026;-64
2023/07/25 10:35:08;;;;;;;6.13;1.20;;;;;;;21.41;51.80;100744.75;5017014;28;20040;-63
2023/07/25 10:37:40;;;;;;;5.43;1.17;;;;;;;21.34;52.33;100753.81;5022312;28;20030;-64
2023/07/25 10:40:12;;;;;;;6.50;1.23;;;;;;;21.13;52.04;100759.09;5018982;28;20070;-63
2023/07/25 10:42:58;;;;;;;5.95;1.23;;;;;;;21.34;53.05;100742.19;5012738;28;20106;-63
2023/07/25 10:45:26;;;;;;;4.70;1.20;;;;;;;21.43;53.02;100756.97;5014665;28;20083;-63
2023/07/25 10:47:52;;;;;;;4.10;1.00;;;;;;;21.34;52.34;100759.22;5021327;28;20108;-64
2023/07/25 10:50:19;;;;;;;5.80;1.10;;;;;;;21.03;50.31;100754.31;5021807;28;20120;-63
2023/07/25 10:52:45;;;;;;;6.75;1.10;;;;;;;21.11;50.26;100751.25;5023729;28;20083;-63
2023/07/25 10:55:11;;;;;;;4.57;1.25;;;;;;;21.11;50.32;100753.13;5019638;28;20038;-63
2023/07/25 10:57:36;;;;;;;5.40;1.00;;;;;;;21.12;50.35;100757.47;5022610;28;20091;-62
2023/07/25 11:00:08;;;;;;;3.90;1.00;;;;;;;21.28;50.85;100749.41;5021201;28;20033;-63
2023/07/25 11:02:43;;;;;;;1.95;0.90;;;;;;;21.42;51.38;100747.22;5022892;28;20055;-62
2023/07/25 11:05:29;;;;;;;4.75;1.10;;;;;;;21.58;51.32;100750.97;5018612;28;20099;-63
2023/07/25 11:07:56;;;;;;;6.22;1.30;;;;;;;21.39;50.89;100749.56;5021184;28;20046;-64
2023/07/25 11:10:28;;;;;;;4.13;1.00;;;;;;;21.30;50.83;100744.56;5024401;28;20065;-64
2023/07/25 11:12:58;;;;;;;4.78;1.10;;;;;;;21.24;50.55;100742.84;5024937;28;20025;-63
2023/07/25 11:15:24;;;;;;;4.15;0.90;;;;;;;21.05;50.66;100738.69;5019946;28;20042;-63
2023/07/25 11:17:49;;;;;;;3.72;1.00;;;;;;;20.94;50.13;100753.06;5017983;28;20037;-64